Holmen, Wisconsin
Current Conditions -  °F | °C
As of 10:53 AM on Friday 19 Dec 2014 (Local Time) from KLSE Reporting Station
Overcast Overcast  
Wind Chill: 28°   Ceiling: 8500
Heat Index: 28°   Visibility: 10mi
Dew Point: 18°   Wind: 3mph
Humidity: 66%   Direction: 130°SE
Pressure: 30.3"   Gusts: NA
Location:  43.96°N, 91.26°W
Report Text: KLSE 191653Z 13003KT 10SM OVC085 M02/M08 A3030 RMK AO2 SLP275 T10221078
Loading
Personal Weather Stations






























Interactive Weather Map New forecast layout! Learn more

10-Day Weather Forecast

Advertisements
Track Severe Weather on mobile